Kaniama Airport


Codes: FZTS/
Name: Kaniama Airport
City: Kaniama
Country: Congo [DRC]
Elevation: 2871 ft.

Photos at Kaniama Airport


   Photos courtesy of SpottingLog. You can add your own sightings and photos by signing up for a free trial today.



No photos found.

Weather at Kaniama Airport


Time (UTC)DescriptionTempratureWindCloud coverageVisibilityPressureHumidity
18-Apr-2024 00:00Broken Clouds20°C4 mph, SE78%10000m1013hPa95%
18-Apr-2024 03:00Overcast Clouds19°C4 mph, SE86%10000m1013hPa96%
18-Apr-2024 06:00Broken Clouds21°C7 mph, SE55%10000m1014hPa89%
18-Apr-2024 09:00Broken Clouds27°C9 mph, E52%10000m1014hPa66%
18-Apr-2024 12:00Light Rain27°C7 mph, E76%10000m1011hPa70%
18-Apr-2024 15:00Light Rain25°C4 mph, SE100%10000m1011hPa82%
18-Apr-2024 18:00Overcast Clouds21°C4 mph, SE100%10000m1013hPa93%
18-Apr-2024 21:00Broken Clouds20°C4 mph, SE56%10000m1013hPa96%
19-Apr-2024 00:00Scattered Clouds19°C4 mph, SE40%10000m1012hPa95%
19-Apr-2024 03:00Few Clouds19°C4 mph, SE13%10000m1012hPa95%
19-Apr-2024 06:00Scattered Clouds21°C7 mph, SE32%10000m1014hPa87%
19-Apr-2024 09:00Overcast Clouds26°C9 mph, SE97%10000m1013hPa66%
19-Apr-2024 12:00Overcast Clouds26°C4 mph, E98%10000m1010hPa71%
19-Apr-2024 15:00Light Rain25°C4 mph, SE100%10000m1010hPa80%
19-Apr-2024 18:00Light Rain21°C2 mph, SE92%10000m1012hPa91%
19-Apr-2024 21:00Light Rain20°C4 mph, SE82%10000m1013hPa94%
20-Apr-2024 00:00Overcast Clouds19°C4 mph, SE88%10000m1012hPa95%
20-Apr-2024 03:00Overcast Clouds19°C4 mph, SE97%10000m1011hPa95%
20-Apr-2024 06:00Overcast Clouds21°C4 mph, SE99%10000m1013hPa90%
20-Apr-2024 09:00Overcast Clouds27°C7 mph, SE93%10000m1012hPa67%
20-Apr-2024 12:00Light Rain29°C7 mph, E89%10000m1009hPa58%
20-Apr-2024 15:00Light Rain27°C2 mph, NE92%10000m1008hPa74%
20-Apr-2024 18:00Light Rain21°C4 mph, SE95%10000m1011hPa89%
20-Apr-2024 21:00Broken Clouds20°C4 mph, S74%10000m1012hPa92%
21-Apr-2024 00:00Overcast Clouds19°C4 mph, S85%10000m1010hPa94%
21-Apr-2024 03:00Overcast Clouds19°C4 mph, SE100%10000m1011hPa94%
21-Apr-2024 06:00Overcast Clouds21°C4 mph, SE100%10000m1012hPa87%
21-Apr-2024 09:00Overcast Clouds27°C4 mph, SE99%10000m1012hPa66%
21-Apr-2024 12:00Light Rain28°C4 mph, E98%10000m1009hPa62%
21-Apr-2024 15:00Light Rain26°C2 mph, E85%10000m1008hPa74%
21-Apr-2024 18:00Light Rain22°C2 mph, SE91%10000m1010hPa85%
21-Apr-2024 21:00Overcast Clouds20°C2 mph, SE86%10000m1011hPa89%
22-Apr-2024 00:00Scattered Clouds20°C4 mph, SE46%10000m1011hPa93%
22-Apr-2024 03:00Clear Sky19°C2 mph, SE1%10000m1011hPa93%
22-Apr-2024 06:00Clear Sky22°C4 mph, SE5%10000m1013hPa85%
22-Apr-2024 09:00Light Rain26°C7 mph, NE100%10000m1012hPa70%
22-Apr-2024 12:00Light Rain27°C4 mph, NE100%9730m1010hPa67%
22-Apr-2024 15:00Light Rain24°C2 mph, NE100%10000m1010hPa88%
22-Apr-2024 18:00Light Rain21°C0 mph, S100%10000m1011hPa92%
22-Apr-2024 21:00Scattered Clouds20°C2 mph, SE46%10000m1011hPa94%